createdAt,value
2022-11-10T00:00:55.288Z,101640.41
2022-11-10T00:03:41.105Z,101627.06
2022-11-10T00:06:27.633Z,101635.44
2022-11-10T00:09:13.931Z,101631.97
2022-11-10T00:12:01.364Z,101629.84
2022-11-10T00:15:05.644Z,101612.63
2022-11-10T00:17:51.780Z,101613.69
2022-11-10T00:20:37.886Z,101622.34
2022-11-10T00:23:24.161Z,101635.50
2022-11-10T00:26:19.192Z,101637.78
2022-11-10T00:29:05.021Z,101619.34
2022-11-10T00:31:50.918Z,101634.91
2022-11-10T00:34:37.038Z,101633.66
2022-11-10T00:37:23.113Z,101628.09
2022-11-10T00:40:09.325Z,101638.78
2022-11-10T00:42:54.835Z,101630.97
2022-11-10T00:45:43.411Z,101651.34
2022-11-10T00:48:29.359Z,101621.69
2022-11-10T00:51:33.215Z,101639.44
2022-11-10T00:54:20.106Z,101631.03
2022-11-10T00:57:06.007Z,101629.59
2022-11-10T00:59:52.127Z,101626.63
2022-11-10T01:02:38.223Z,101629.09
2022-11-10T01:05:24.321Z,101632.19
2022-11-10T01:08:11.039Z,101625.47
2022-11-10T01:11:05.292Z,101616.72
2022-11-10T01:13:53.432Z,101582.41
2022-11-10T01:16:39.082Z,101619.56
2022-11-10T01:19:25.015Z,101621.03
2022-11-10T01:22:10.729Z,101611.19
2022-11-10T01:24:57.238Z,101613.31
2022-11-10T01:27:43.093Z,101623.06
2022-11-10T01:30:29.227Z,101624.19
2022-11-10T01:33:15.168Z,101605.38
2022-11-10T01:36:01.760Z,101628.06
2022-11-10T01:38:48.002Z,101621.84
2022-11-10T01:41:33.672Z,101619.34
2022-11-10T01:44:22.958Z,101626.06
2022-11-10T01:47:09.443Z,101629.34
2022-11-10T01:49:55.622Z,101640.00
2022-11-10T01:52:44.647Z,101644.19
2022-11-10T01:55:32.519Z,101652.38
2022-11-10T01:58:24.007Z,101659.44
2022-11-10T02:01:09.884Z,101657.09
2022-11-10T02:04:13.424Z,101653.72
2022-11-10T02:06:59.672Z,101660.09
2022-11-10T02:09:45.812Z,101656.63
2022-11-10T02:12:39.165Z,101657.06
2022-11-10T02:15:46.263Z,101662.81
2022-11-10T02:18:32.202Z,101657.25
2022-11-10T02:21:19.680Z,101662.59
2022-11-10T02:24:05.997Z,101659.66
2022-11-10T02:26:55.305Z,101652.66
2022-11-10T02:29:42.053Z,101654.47
2022-11-10T02:32:28.912Z,101652.66
2022-11-10T02:35:14.450Z,101668.66
2022-11-10T02:38:01.029Z,101668.25
2022-11-10T02:40:49.227Z,101662.69
2022-11-10T02:43:35.312Z,101673.28
2022-11-10T02:46:21.694Z,101670.22
2022-11-10T02:49:08.356Z,101661.25
2022-11-10T02:51:55.113Z,101657.25
2022-11-10T02:54:40.662Z,101651.69
2022-11-10T02:57:26.672Z,101660.09
2022-11-10T03:00:12.550Z,101668.66
2022-11-10T03:03:02.674Z,101675.63
2022-11-10T03:05:48.767Z,101660.09
2022-11-10T03:08:34.976Z,101667.94
2022-11-10T03:11:20.921Z,101664.31
2022-11-10T03:14:09.278Z,101672.13
2022-11-10T03:16:55.266Z,101669.28
2022-11-10T03:19:41.464Z,101672.78
2022-11-10T03:22:27.795Z,101675.56
2022-11-10T03:25:14.747Z,101679.44
2022-11-10T03:28:00.579Z,101684.69
2022-11-10T03:30:46.616Z,101675.38
2022-11-10T03:33:32.096Z,101669.75
2022-11-10T03:36:18.052Z,101673.72
2022-11-10T03:39:04.519Z,101672.44
2022-11-10T03:41:50.587Z,101665.84
2022-11-10T03:44:36.245Z,101659.94
2022-11-10T03:47:22.095Z,101645.28
2022-11-10T03:50:08.637Z,101687.88
2022-11-10T03:52:54.041Z,101673.28
2022-11-10T03:55:40.513Z,101693.38
2022-11-10T03:58:26.428Z,101687.97
2022-11-10T04:01:12.376Z,101690.81
2022-11-10T04:03:58.944Z,101702.91
2022-11-10T04:07:03.906Z,101693.44
2022-11-10T04:09:49.873Z,101694.03
2022-11-10T04:12:53.724Z,101708.78
2022-11-10T04:15:42.424Z,101711.81
2022-11-10T04:18:30.108Z,101710.56
2022-11-10T04:21:16.560Z,101721.38
2022-11-10T04:24:02.740Z,101715.44
2022-11-10T04:26:49.769Z,101718.41
2022-11-10T04:29:35.279Z,101699.25
2022-11-10T04:32:21.279Z,101730.66
2022-11-10T04:35:07.431Z,101736.53
2022-11-10T04:37:53.395Z,101725.50
2022-11-10T04:40:38.886Z,101741.69
2022-11-10T04:43:25.229Z,101734.56
2022-11-10T04:46:27.516Z,101757.06
2022-11-10T04:49:14.055Z,101737.88
2022-11-10T04:51:59.694Z,101767.09
2022-11-10T04:54:45.565Z,101761.22
2022-11-10T04:57:31.222Z,101748.06
2022-11-10T05:00:17.902Z,101769.88
2022-11-10T05:03:06.228Z,101765.34
2022-11-10T05:05:52.249Z,101760.50
2022-11-10T05:08:40.988Z,101772.59
2022-11-10T05:11:26.941Z,101759.84
2022-11-10T05:14:12.963Z,101768.97
2022-11-10T05:16:58.684Z,101767.72
2022-11-10T05:19:47.582Z,101764.34
2022-11-10T05:22:33.360Z,101779.91
2022-11-10T05:25:19.639Z,101791.56
2022-11-10T05:28:07.432Z,101785.88
2022-11-10T05:30:53.580Z,101782.34
2022-11-10T05:33:41.318Z,101792.63
2022-11-10T05:36:26.857Z,101788.09
2022-11-10T05:39:12.828Z,101800.91
2022-11-10T05:41:58.726Z,101785.22
2022-11-10T05:44:44.903Z,101792.81
2022-11-10T05:47:31.421Z,101792.72
2022-11-10T05:50:19.099Z,101803.31
2022-11-10T05:53:04.860Z,101796.91
2022-11-10T05:55:50.784Z,101814.97
2022-11-10T05:58:37.199Z,101800.81
2022-11-10T06:01:23.321Z,101805.69
2022-11-10T06:04:09.069Z,101802.84
2022-11-10T06:06:55.095Z,101813.88
2022-11-10T06:09:42.863Z,101823.97
2022-11-10T06:12:31.007Z,101815.66
2022-11-10T06:15:17.364Z,101801.88
2022-11-10T06:18:04.642Z,101807.16
2022-11-10T06:20:50.398Z,101808.13
2022-11-10T06:23:36.526Z,101783.41
2022-11-10T06:26:22.690Z,101817.69
2022-11-10T06:29:08.759Z,101822.78
2022-11-10T06:31:54.757Z,101824.50
2022-11-10T06:34:41.026Z,101830.94
2022-11-10T06:37:26.907Z,101825.88
2022-11-10T06:40:14.250Z,101829.69
2022-11-10T06:43:01.980Z,101827.25
2022-11-10T06:45:47.630Z,101830.53
2022-11-10T06:48:33.575Z,101791.41
2022-11-10T06:51:19.516Z,101833.75
2022-11-10T06:54:05.494Z,101829.16
2022-11-10T06:56:51.593Z,101839.13
2022-11-10T06:59:37.861Z,101828.56
2022-11-10T07:02:23.682Z,101846.47
2022-11-10T07:05:09.439Z,101843.72
2022-11-10T07:07:55.416Z,101853.53
2022-11-10T07:10:41.128Z,101843.88
2022-11-10T07:13:26.802Z,101855.41
2022-11-10T07:16:12.893Z,101854.69
2022-11-10T07:18:58.852Z,101842.09
2022-11-10T07:21:45.090Z,101848.31
2022-11-10T07:24:30.716Z,101845.88
2022-11-10T07:27:16.547Z,101860.47
2022-11-10T07:30:02.453Z,101855.13
2022-11-10T07:32:57.655Z,101856.81
2022-11-10T07:35:44.199Z,101851.53
2022-11-10T07:38:30.632Z,101862.44
2022-11-10T07:41:16.169Z,101863.34
2022-11-10T07:44:03.586Z,101874.16
2022-11-10T07:46:49.652Z,101870.50
2022-11-10T07:49:36.268Z,101867.91
2022-11-10T07:52:22.188Z,101852.84
2022-11-10T07:55:08.556Z,101858.00
2022-11-10T07:58:00.619Z,101854.59
2022-11-10T08:00:47.325Z,101864.66
2022-11-10T08:03:33.231Z,101863.53
2022-11-10T08:06:19.218Z,101859.56
2022-11-10T08:09:04.992Z,101874.34
2022-11-10T08:11:50.719Z,101875.19
2022-11-10T08:14:36.794Z,101865.19
2022-11-10T08:17:23.037Z,101868.28
2022-11-10T08:20:09.688Z,101880.38
2022-11-10T08:23:05.267Z,101873.06
2022-11-10T08:25:53.451Z,101864.44
2022-11-10T08:28:39.353Z,101865.06
2022-11-10T08:31:25.065Z,101849.56
2022-11-10T08:34:10.774Z,101859.66
2022-11-10T08:36:56.815Z,101867.53
2022-11-10T08:39:42.464Z,101852.34
2022-11-10T08:42:28.681Z,101858.84
2022-11-10T08:45:15.263Z,101846.88
2022-11-10T08:48:03.332Z,101853.56
2022-11-10T08:50:50.125Z,101859.81
2022-11-10T08:53:35.955Z,101857.84
2022-11-10T08:56:23.435Z,101857.06
2022-11-10T08:59:09.525Z,101848.97
2022-11-10T09:01:55.370Z,101846.97
2022-11-10T09:04:42.027Z,101848.94
2022-11-10T09:07:28.126Z,101850.06
2022-11-10T09:10:14.775Z,101847.78
2022-11-10T09:13:02.271Z,101851.75
2022-11-10T09:15:48.354Z,101851.44
2022-11-10T09:18:34.487Z,101850.03
2022-11-10T09:21:20.681Z,101847.84
2022-11-10T09:24:07.296Z,101842.53
2022-11-10T09:26:53.443Z,101848.13
2022-11-10T09:29:39.582Z,101853.19
2022-11-10T09:32:25.342Z,101855.97
2022-11-10T09:35:11.404Z,101844.78
2022-11-10T09:37:57.100Z,101856.19
2022-11-10T09:40:50.782Z,101857.56
2022-11-10T09:43:58.564Z,101847.53
2022-11-10T09:46:50.115Z,101851.44
2022-11-10T09:49:41.884Z,101852.00
2022-11-10T09:52:33.345Z,101849.25
2022-11-10T09:55:35.233Z,101853.75
2022-11-10T09:58:27.211Z,101858.78
2022-11-10T10:01:26.644Z,101853.19
2022-11-10T10:04:42.180Z,101852.63
2022-11-10T10:07:54.851Z,101851.78
2022-11-10T10:10:59.385Z,101845.06
2022-11-10T10:14:01.516Z,101849.03
2022-11-10T10:17:09.061Z,101849.56
2022-11-10T10:20:03.574Z,101848.69
2022-11-10T10:23:22.172Z,101861.28
2022-11-10T10:26:18.842Z,101853.44
2022-11-10T10:29:17.837Z,101856.50
2022-11-10T10:32:03.490Z,101847.50
2022-11-10T10:34:49.694Z,101861.53
2022-11-10T10:37:45.222Z,101853.69
2022-11-10T10:40:30.855Z,101841.94
2022-11-10T10:43:16.765Z,101830.16
2022-11-10T10:46:16.069Z,101846.94
2022-11-10T10:49:32.167Z,101857.00
2022-11-10T10:52:25.393Z,101859.84
2022-11-10T10:55:13.184Z,101859.53
2022-11-10T10:58:02.430Z,101852.00
2022-11-10T11:00:52.566Z,101850.56
2022-11-10T11:03:45.291Z,101855.31
2022-11-10T11:06:35.255Z,101842.50
2022-11-10T11:09:40.375Z,101843.63
2022-11-10T11:12:28.650Z,101833.63
2022-11-10T11:15:26.777Z,101849.81
2022-11-10T11:18:20.780Z,101852.63
2022-11-10T11:21:22.104Z,101855.72
2022-11-10T11:24:33.574Z,101856.84
2022-11-10T11:27:30.149Z,101856.56
2022-11-10T11:30:25.292Z,101850.13
2022-11-10T11:33:35.065Z,101858.53
2022-11-10T11:36:39.722Z,101850.38
2022-11-10T11:39:46.998Z,101856.56
2022-11-10T11:42:42.484Z,101841.19
2022-11-10T11:45:49.838Z,101849.28
2022-11-10T11:48:41.643Z,101846.22
2022-11-10T11:52:02.843Z,101843.13
2022-11-10T11:55:13.681Z,101836.13
2022-11-10T11:58:29.404Z,101851.81
2022-11-10T12:01:34.016Z,101851.53
2022-11-10T12:04:42.383Z,101850.13
2022-11-10T12:07:31.083Z,101845.91
2022-11-10T12:10:24.919Z,101833.88
2022-11-10T12:13:23.479Z,101847.88
2022-11-10T12:16:26.350Z,101847.59
2022-11-10T12:19:29.901Z,101845.09
2022-11-10T12:22:34.329Z,101841.44
2022-11-10T12:26:09.834Z,101848.72
2022-11-10T12:29:05.250Z,101844.81
2022-11-10T12:31:57.319Z,101848.44
2022-11-10T12:34:48.183Z,101837.78
2022-11-10T12:37:37.004Z,101847.53
2022-11-10T12:40:28.588Z,101848.97
2022-11-10T12:43:19.371Z,101845.91
2022-11-10T12:46:08.978Z,101846.44
2022-11-10T12:49:13.002Z,101854.00
2022-11-10T12:52:17.653Z,101851.50
2022-11-10T12:55:04.246Z,101853.13
2022-11-10T12:57:50.080Z,101845.28
2022-11-10T13:00:43.165Z,101859.78
2022-11-10T13:03:35.239Z,101860.94
2022-11-10T13:06:26.523Z,101853.13
2022-11-10T13:09:24.822Z,101853.69
2022-11-10T13:12:19.235Z,101846.16
2022-11-10T13:15:43.349Z,101850.09
2022-11-10T13:18:29.754Z,101861.03
2022-11-10T13:21:15.381Z,101852.09
2022-11-10T13:24:02.778Z,101856.59
2022-11-10T13:26:53.735Z,101853.78
2022-11-10T13:29:46.802Z,101856.56
2022-11-10T13:32:35.350Z,101849.84
2022-11-10T13:35:30.469Z,101859.94
2022-11-10T13:38:36.631Z,101854.34
2022-11-10T13:41:26.109Z,101855.19
2022-11-10T13:44:27.718Z,101849.84
2022-11-10T13:47:35.263Z,101862.44
2022-11-10T13:50:21.184Z,101863.50
2022-11-10T13:53:16.385Z,101864.63
2022-11-10T13:56:47.851Z,101867.38
2022-11-10T13:59:46.338Z,101867.41
2022-11-10T14:02:41.686Z,101875.31
2022-11-10T14:05:30.775Z,101873.34
2022-11-10T14:08:24.847Z,101865.50
2022-11-10T14:11:20.226Z,101876.41
2022-11-10T14:14:25.194Z,101843.38
2022-11-10T14:17:21.569Z,101886.78
2022-11-10T14:20:43.756Z,101882.88
2022-11-10T14:23:50.807Z,101875.31
2022-11-10T14:26:53.460Z,101878.13
2022-11-10T14:29:40.566Z,101880.06
2022-11-10T14:32:27.121Z,101876.75
2022-11-10T14:35:27.521Z,101873.63
2022-11-10T14:38:25.443Z,101882.88
2022-11-10T14:41:23.257Z,101873.38
2022-11-10T14:44:24.348Z,101873.94
2022-11-10T14:47:27.013Z,101876.72
2022-11-10T14:50:16.474Z,101879.84
2022-11-10T14:53:03.709Z,101882.91
2022-11-10T14:55:54.696Z,101874.50
2022-11-10T14:58:43.152Z,101881.22
2022-11-10T15:01:34.881Z,101882.03
2022-11-10T15:04:25.024Z,101878.94
2022-11-10T15:07:11.497Z,101889.03
2022-11-10T15:10:16.180Z,101885.69
2022-11-10T15:13:08.035Z,101872.22
2022-11-10T15:16:28.886Z,101887.63
2022-11-10T15:19:32.204Z,101870.56
2022-11-10T15:22:31.116Z,101879.78
2022-11-10T15:25:21.672Z,101882.06
2022-11-10T15:28:27.592Z,101896.31
2022-11-10T15:31:23.566Z,101861.06
2022-11-10T15:34:30.720Z,101883.44
2022-11-10T15:37:30.495Z,101895.22
2022-11-10T15:40:33.473Z,101894.06
2022-11-10T15:43:19.841Z,101894.63
2022-11-10T15:46:18.301Z,101890.19
2022-11-10T15:49:08.767Z,101895.78
2022-11-10T15:52:12.424Z,101887.94
2022-11-10T15:54:58.106Z,101895.78
2022-11-10T15:57:43.893Z,101881.78
2022-11-10T16:00:30.396Z,101905.84
2022-11-10T16:03:20.461Z,101893.78
2022-11-10T16:06:07.280Z,101908.06
2022-11-10T16:08:54.493Z,101899.41
2022-11-10T16:11:44.959Z,101914.81
2022-11-10T16:14:30.692Z,101907.53
2022-11-10T16:17:18.113Z,101916.47
2022-11-10T16:20:04.257Z,101917.06
2022-11-10T16:22:49.848Z,101910.31
2022-11-10T16:25:36.261Z,101910.06
2022-11-10T16:28:25.257Z,101920.41
2022-11-10T16:31:16.087Z,101920.97
2022-11-10T16:34:01.923Z,101916.50
2022-11-10T16:36:48.048Z,101929.59
2022-11-10T16:39:33.885Z,101917.56
2022-11-10T16:42:19.885Z,101923.72
2022-11-10T16:45:06.413Z,101924.81
2022-11-10T16:47:53.777Z,101916.38
2022-11-10T16:50:39.954Z,101925.28
2022-11-10T16:53:28.733Z,101933.66
2022-11-10T16:56:17.187Z,101934.19
2022-11-10T16:59:04.567Z,101915.09
2022-11-10T17:01:50.757Z,101923.53
2022-11-10T17:04:36.527Z,101919.97
2022-11-10T17:07:26.406Z,101929.16
2022-11-10T17:10:22.186Z,101938.13
2022-11-10T17:13:11.688Z,101945.13
2022-11-10T17:16:05.217Z,101928.03
2022-11-10T17:18:51.680Z,101938.72
2022-11-10T17:21:39.152Z,101941.50
2022-11-10T17:24:25.085Z,101943.22
2022-11-10T17:27:12.062Z,101923.66
2022-11-10T17:29:58.281Z,101935.44
2022-11-10T17:33:04.189Z,101924.50
2022-11-10T17:35:52.877Z,101932.63
2022-11-10T17:38:39.057Z,101937.38
2022-11-10T17:41:25.082Z,101937.13
2022-11-10T17:44:17.267Z,101936.53
2022-11-10T17:47:03.169Z,101921.44
2022-11-10T17:49:49.050Z,101930.38
2022-11-10T17:52:38.149Z,101924.78
2022-11-10T17:55:32.767Z,101938.16
2022-11-10T17:58:21.997Z,101936.13
2022-11-10T18:01:19.189Z,101934.22
2022-11-10T18:04:05.011Z,101930.25
2022-11-10T18:06:50.991Z,101935.84
2022-11-10T18:09:37.064Z,101936.41
2022-11-10T18:12:27.796Z,101932.22
2022-11-10T18:15:16.371Z,101944.59
2022-11-10T18:18:03.015Z,101927.56
2022-11-10T18:20:49.086Z,101933.69
2022-11-10T18:23:35.933Z,101926.41
2022-11-10T18:26:22.635Z,101942.69
2022-11-10T18:29:08.611Z,101927.81
2022-11-10T18:31:54.551Z,101948.16
2022-11-10T18:34:43.837Z,101946.75
2022-11-10T18:37:30.174Z,101949.28
2022-11-10T18:40:16.213Z,101949.31
2022-11-10T18:43:07.711Z,101941.25
2022-11-10T18:45:54.822Z,101920.25
2022-11-10T18:48:41.910Z,101926.69
2022-11-10T18:51:28.243Z,101945.13
2022-11-10T18:54:15.406Z,101945.47
2022-11-10T18:57:01.776Z,101937.13
2022-11-10T18:59:50.424Z,101934.31
2022-11-10T19:02:36.311Z,101931.56
2022-11-10T19:05:21.930Z,101929.31
2022-11-10T19:08:08.283Z,101937.97
2022-11-10T19:10:57.061Z,101946.66
2022-11-10T19:13:43.805Z,101946.03
2022-11-10T19:16:31.013Z,101940.22
2022-11-10T19:19:17.088Z,101936.03
2022-11-10T19:22:06.238Z,101930.09
2022-11-10T19:25:07.625Z,101930.69
2022-11-10T19:27:54.603Z,101928.16
2022-11-10T19:30:40.671Z,101925.13
2022-11-10T19:33:29.708Z,101925.94
2022-11-10T19:36:21.460Z,101927.69
2022-11-10T19:39:07.804Z,101926.84
2022-11-10T19:41:54.246Z,101926.56
2022-11-10T19:44:39.918Z,101928.53
2022-11-10T19:47:25.852Z,101930.75
2022-11-10T19:50:11.958Z,101926.78
2022-11-10T19:52:57.706Z,101904.91
2022-11-10T19:55:43.693Z,101924.81
2022-11-10T19:58:30.627Z,101905.22
2022-11-10T20:01:18.400Z,101916.88
2022-11-10T20:04:06.150Z,101924.72
2022-11-10T20:07:11.875Z,101905.72
2022-11-10T20:09:58.111Z,101907.06
2022-11-10T20:12:44.113Z,101905.97
2022-11-10T20:15:30.349Z,101910.19
2022-11-10T20:18:16.205Z,101914.91
2022-11-10T20:21:06.536Z,101909.63
2022-11-10T20:23:56.849Z,101916.31
2022-11-10T20:26:43.132Z,101915.50
2022-11-10T20:29:29.176Z,101920.84
2022-11-10T20:32:14.961Z,101923.09
2022-11-10T20:35:01.049Z,101888.94
2022-11-10T20:37:51.677Z,101920.25
2022-11-10T20:40:44.289Z,101910.44
2022-11-10T20:43:33.892Z,101908.78
2022-11-10T20:46:48.367Z,101910.50
2022-11-10T20:49:28.274Z,101893.91
2022-11-10T20:52:14.364Z,101919.16
2022-11-10T20:55:01.811Z,101915.81
2022-11-10T20:57:47.572Z,101923.69
2022-11-10T21:00:33.549Z,101891.78
2022-11-10T21:03:20.632Z,101915.00
2022-11-10T21:06:07.186Z,101922.56
2022-11-10T21:08:54.420Z,101932.00
2022-11-10T21:11:58.689Z,101930.00
2022-11-10T21:14:44.710Z,101935.78
2022-11-10T21:17:31.364Z,101929.84
2022-11-10T21:20:17.000Z,101937.38
2022-11-10T21:23:03.678Z,101938.88
2022-11-10T21:25:59.663Z,101941.69
2022-11-10T21:28:45.286Z,101930.53
2022-11-10T21:31:31.679Z,101933.81
2022-11-10T21:34:17.485Z,101935.16
2022-11-10T21:37:03.924Z,101920.88
2022-11-10T21:39:50.073Z,101928.16
2022-11-10T21:42:35.896Z,101925.34
2022-11-10T21:45:22.191Z,101935.44
2022-11-10T21:48:09.250Z,101928.59
2022-11-10T21:51:00.033Z,101938.38
2022-11-10T21:53:45.967Z,101936.47
2022-11-10T21:56:32.035Z,101933.75
2022-11-10T21:59:19.624Z,101921.78
2022-11-10T22:02:05.930Z,101925.41
2022-11-10T22:04:54.887Z,101923.97
2022-11-10T22:07:40.708Z,101928.09
2022-11-10T22:10:45.356Z,101925.91
2022-11-10T22:13:49.501Z,101932.31
2022-11-10T22:17:02.303Z,101931.69
2022-11-10T22:19:48.352Z,101923.66
2022-11-10T22:22:34.361Z,101929.91
2022-11-10T22:25:20.548Z,101924.06
2022-11-10T22:28:06.885Z,101920.09
2022-11-10T22:30:53.203Z,101927.16
2022-11-10T22:33:41.514Z,101931.91
2022-11-10T22:36:28.074Z,101931.25
2022-11-10T22:39:13.798Z,101934.09
2022-11-10T22:42:18.283Z,101917.31
2022-11-10T22:45:04.556Z,101935.47
2022-11-10T22:48:08.614Z,101939.06
2022-11-10T22:50:58.112Z,101932.91
2022-11-10T22:53:44.105Z,101935.00
2022-11-10T22:56:32.087Z,101932.72
2022-11-10T22:59:18.496Z,101941.13
2022-11-10T23:02:04.206Z,101947.28
2022-11-10T23:04:50.233Z,101943.75
2022-11-10T23:07:36.040Z,101946.34
2022-11-10T23:10:22.205Z,101945.16
2022-11-10T23:13:08.007Z,101946.72
2022-11-10T23:15:59.081Z,101940.00
2022-11-10T23:18:46.398Z,101947.16
2022-11-10T23:21:32.278Z,101941.31
2022-11-10T23:24:21.121Z,101953.59
2022-11-10T23:27:07.174Z,101946.28
2022-11-10T23:29:53.278Z,101939.94
2022-11-10T23:32:39.522Z,101941.84
2022-11-10T23:35:25.289Z,101935.94
2022-11-10T23:38:10.893Z,101947.28
2022-11-10T23:40:58.157Z,101940.44
2022-11-10T23:43:44.524Z,101929.81
2022-11-10T23:46:30.566Z,101933.22
2022-11-10T23:49:16.848Z,101924.31
2022-11-10T23:52:02.494Z,101917.53
2022-11-10T23:54:48.886Z,101921.31
2022-11-10T23:57:34.901Z,101918.13
